Time;durP1;ratioP1;P1;durP2;ratioP2;P2;SDS_P1;SDS_P2;PMS_P1;PMS_P2;Temp;Humidity;BMP_temperature;BMP_pressure;BME280_temperature;BME280_humidity;BME280_pressure;Samples;Min_cycle;Max_cycle;Signal;HPM_P1;HPM_P2
2023/07/20 00:01:04;;;;;;;8.25;6.90;;;13.70;99.90;;;;;;5050924;28;20045;-25
2023/07/20 00:03:30;;;;;;;9.27;6.78;;;13.60;99.90;;;;;;5034329;28;20132;-25
2023/07/20 00:05:55;;;;;;;6.97;6.07;;;13.60;99.90;;;;;;5040779;28;20272;-25
2023/07/20 00:08:21;;;;;;;11.38;7.15;;;13.60;99.90;;;;;;5046262;28;20167;-26
2023/07/20 00:10:47;;;;;;;10.85;7.50;;;13.60;99.90;;;;;;5050803;28;20041;-25
2023/07/20 00:13:13;;;;;;;10.98;8.40;;;13.60;99.90;;;;;;5052772;28;20049;-25
2023/07/20 00:15:39;;;;;;;8.77;7.85;;;13.60;99.90;;;;;;5035629;28;20049;-25
2023/07/20 00:18:05;;;;;;;13.27;8.48;;;13.50;99.90;;;;;;5035225;28;20049;-25
2023/07/20 00:20:31;;;;;;;10.75;8.48;;;13.50;99.90;;;;;;5035911;28;20045;-25
2023/07/20 00:22:57;;;;;;;10.70;7.90;;;13.40;99.90;;;;;;5035121;28;20490;-25
2023/07/20 00:25:26;;;;;;;11.32;8.60;;;13.40;99.90;;;;;;5035842;28;20380;-25
2023/07/20 00:27:52;;;;;;;9.63;8.45;;;13.30;99.90;;;;;;5053802;28;20557;-25
2023/07/20 00:30:18;;;;;;;10.75;8.20;;;13.10;99.90;;;;;;5053549;28;20045;-25
2023/07/20 00:32:44;;;;;;;10.40;8.73;;;13.00;99.90;;;;;;5055701;28;20403;-24
2023/07/20 00:35:11;;;;;;;9.73;8.43;;;12.90;99.90;;;;;;5055160;28;20048;-24
2023/07/20 00:37:38;;;;;;;13.18;8.88;;;12.70;99.90;;;;;;5053114;28;20045;-24
2023/07/20 00:40:07;;;;;;;13.30;8.77;;;12.50;99.90;;;;;;5054075;28;20111;-24
2023/07/20 00:42:33;;;;;;;14.73;9.48;;;12.40;99.90;;;;;;5053699;28;20055;-24
2023/07/20 00:45:00;;;;;;;18.55;11.35;;;12.30;99.90;;;;;;5044503;28;20044;-24
2023/07/20 00:47:27;;;;;;;19.00;10.85;;;12.20;99.90;;;;;;5051596;28;20045;-24
2023/07/20 00:49:53;;;;;;;22.60;12.50;;;12.20;99.90;;;;;;5053175;28;20052;-24
2023/07/20 00:52:21;;;;;;;22.80;11.25;;;12.10;99.90;;;;;;5036491;28;20053;-23
2023/07/20 00:54:47;;;;;;;18.45;11.07;;;12.10;99.90;;;;;;5037076;28;20049;-24
2023/07/20 00:57:18;;;;;;;49.17;13.82;;;12.00;99.90;;;;;;5017429;28;20060;-24
2023/07/20 00:59:45;;;;;;;81.93;15.00;;;11.90;99.90;;;;;;5034268;28;20132;-24
2023/07/20 01:02:10;;;;;;;185.93;17.25;;;11.90;99.90;;;;;;5037668;28;20045;-24
2023/07/20 01:04:37;;;;;;;46.78;11.40;;;11.70;99.90;;;;;;5034969;28;20052;-24
2023/07/20 01:07:20;;;;;;;165.57;17.88;;;11.60;99.90;;;;;;5049855;28;20048;-24
2023/07/20 01:10:15;;;;;;;199.88;18.40;;;11.60;99.90;;;;;;5053488;28;20045;-24
2023/07/20 01:12:47;;;;;;;261.15;18.80;;;11.50;99.90;;;;;;5013606;28;20053;-24
2023/07/20 01:15:13;;;;;;;320.38;18.55;;;11.40;99.90;;;;;;5047159;28;20042;-24
2023/07/20 01:17:39;;;;;;;218.32;16.45;;;11.30;99.90;;;;;;5049887;28;20048;-24
2023/07/20 01:20:08;;;;;;;47.53;11.15;;;11.20;99.90;;;;;;5053954;28;20483;-24
2023/07/20 01:23:06;;;;;;;221.10;18.23;;;11.10;99.90;;;;;;5047947;28;20395;-24
2023/07/20 01:25:46;;;;;;;140.05;15.10;;;11.00;99.90;;;;;;5019961;28;20059;-23
2023/07/20 01:28:23;;;;;;;105.22;14.05;;;10.90;99.90;;;;;;5050405;28;20056;-23
2023/07/20 01:31:10;;;;;;;104.03;14.15;;;10.80;99.90;;;;;;5054129;28;20052;-24
2023/07/20 01:33:37;;;;;;;58.67;12.27;;;10.80;99.90;;;;;;5052427;28;20049;-24
2023/07/20 01:36:03;;;;;;;44.72;11.10;;;10.70;99.90;;;;;;5045645;28;20407;-23
2023/07/20 01:38:29;;;;;;;170.52;15.05;;;10.70;99.90;;;;;;5045797;28;20044;-23
2023/07/20 01:40:57;;;;;;;282.48;16.75;;;10.60;99.90;;;;;;5052368;28;20048;-23
2023/07/20 01:43:22;;;;;;;396.55;20.05;;;10.50;99.90;;;;;;5047494;28;20406;-23
2023/07/20 01:45:48;;;;;;;326.20;15.52;;;10.40;99.90;;;;;;5053834;28;20048;-23
2023/07/20 01:48:14;;;;;;;58.80;8.55;;;10.30;99.90;;;;;;5042905;28;20044;-23
2023/07/20 01:50:39;;;;;;;424.33;20.80;;;10.20;99.90;;;;;;5052936;28;20045;-23
2023/07/20 01:53:05;;;;;;;347.33;18.52;;;10.10;99.90;;;;;;5052849;28;20060;-23
2023/07/20 01:55:31;;;;;;;215.02;15.05;;;10.00;99.90;;;;;;5051102;28;20411;-23
2023/07/20 01:57:59;;;;;;;140.05;12.25;;;9.90;99.90;;;;;;5042486;28;20051;-23
2023/07/20 02:00:25;;;;;;;110.70;12.70;;;9.90;99.90;;;;;;5035516;28;20045;-24
2023/07/20 02:02:51;;;;;;;18.30;8.93;;;9.90;99.90;;;;;;5034932;28;20124;-24
2023/07/20 02:05:17;;;;;;;13.95;9.75;;;9.90;99.90;;;;;;5031739;28;20046;-24
2023/07/20 02:07:43;;;;;;;14.50;10.27;;;9.90;99.90;;;;;;5041050;28;20119;-23
2023/07/20 02:10:09;;;;;;;18.80;11.05;;;9.90;99.90;;;;;;5044050;28;20042;-23
2023/07/20 02:12:35;;;;;;;21.85;11.63;;;10.00;99.90;;;;;;5048719;28;20076;-23
2023/07/20 02:15:02;;;;;;;20.77;11.30;;;10.00;99.90;;;;;;5050801;28;20045;-24
2023/07/20 02:17:28;;;;;;;14.68;10.77;;;10.00;99.90;;;;;;5033547;28;20041;-23
2023/07/20 02:19:54;;;;;;;17.98;10.55;;;10.00;99.90;;;;;;5033526;28;20099;-24
2023/07/20 02:22:21;;;;;;;19.02;11.13;;;10.00;99.90;;;;;;5032624;28;20384;-23
2023/07/20 02:24:47;;;;;;;16.35;10.88;;;10.00;99.90;;;;;;5033419;28;20045;-23
2023/07/20 02:27:12;;;;;;;17.13;11.20;;;10.00;99.90;;;;;;5036120;28;20118;-23
2023/07/20 02:29:40;;;;;;;20.23;11.48;;;10.00;99.90;;;;;;5052547;28;20053;-23
2023/07/20 02:32:06;;;;;;;13.60;9.60;;;9.90;99.90;;;;;;5053321;28;20114;-23
2023/07/20 02:34:33;;;;;;;13.35;9.80;;;9.90;99.90;;;;;;5053365;28;20049;-23
2023/07/20 02:37:00;;;;;;;16.27;10.65;;;9.80;99.90;;;;;;5052360;28;20399;-23
2023/07/20 02:39:30;;;;;;;20.40;11.45;;;9.80;99.90;;;;;;5056774;28;20056;-23
2023/07/20 02:41:56;;;;;;;16.95;11.05;;;9.80;99.90;;;;;;5057243;28;20052;-23
2023/07/20 02:44:21;;;;;;;16.42;10.43;;;9.80;99.90;;;;;;5047963;28;20094;-23
2023/07/20 02:46:49;;;;;;;18.48;10.93;;;9.80;99.90;;;;;;5035089;28;20139;-24
2023/07/20 02:49:15;;;;;;;20.67;11.70;;;9.80;99.90;;;;;;5052371;28;20048;-24
2023/07/20 02:51:41;;;;;;;15.88;10.02;;;9.70;99.90;;;;;;5056146;28;20597;-24
2023/07/20 02:54:07;;;;;;;22.20;10.77;;;9.70;99.90;;;;;;5051149;28;20046;-24
2023/07/20 02:56:34;;;;;;;14.27;9.73;;;9.80;99.90;;;;;;5052622;28;20049;-23
2023/07/20 02:59:01;;;;;;;14.13;10.00;;;9.80;99.90;;;;;;5056512;28;20127;-23
2023/07/20 03:01:29;;;;;;;17.50;11.43;;;9.80;99.90;;;;;;5056931;28;20045;-23
2023/07/20 03:03:55;;;;;;;16.40;11.32;;;9.80;99.90;;;;;;5043057;28;20492;-22
2023/07/20 03:06:21;;;;;;;21.05;12.45;;;9.90;99.90;;;;;;5050774;28;20543;-23
2023/07/20 03:08:48;;;;;;;17.35;10.60;;;9.80;99.90;;;;;;5066987;28;20132;-22
2023/07/20 03:11:17;;;;;;;17.60;11.63;;;9.80;99.90;;;;;;5044011;28;20049;-23
2023/07/20 03:13:44;;;;;;;19.25;11.63;;;9.70;99.90;;;;;;5049246;28;20073;-23
2023/07/20 03:16:11;;;;;;;14.90;9.85;;;9.70;99.90;;;;;;5051394;28;20367;-23
2023/07/20 03:18:38;;;;;;;13.45;9.40;;;9.70;99.90;;;;;;5042965;28;20450;-23
2023/07/20 03:21:05;;;;;;;14.40;9.90;;;9.60;99.90;;;;;;5055660;28;20045;-23
2023/07/20 03:23:31;;;;;;;12.15;9.48;;;9.60;99.90;;;;;;5046824;28;20395;-23
2023/07/20 03:25:57;;;;;;;14.88;10.05;;;9.60;99.90;;;;;;5036386;28;20080;-23
2023/07/20 03:28:23;;;;;;;14.60;9.38;;;9.50;99.90;;;;;;5036957;28;20065;-23
2023/07/20 03:30:55;;;;;;;18.40;10.27;;;9.50;99.90;;;;;;5036437;28;20049;-23
2023/07/20 03:33:31;;;;;;;15.00;9.65;;;9.40;99.90;;;;;;5036429;28;20085;-23
2023/07/20 03:35:57;;;;;;;15.32;10.00;;;9.40;99.90;;;;;;5048026;28;20052;-23
2023/07/20 03:38:24;;;;;;;16.67;9.48;;;9.50;99.90;;;;;;5036713;28;20037;-23
2023/07/20 03:40:54;;;;;;;15.48;10.48;;;9.40;99.90;;;;;;5035114;28;20038;-23
2023/07/20 03:43:20;;;;;;;15.80;10.02;;;9.50;99.90;;;;;;5036159;28;20052;-23
2023/07/20 03:45:47;;;;;;;14.77;9.20;;;9.40;99.90;;;;;;5036143;28;20045;-23
2023/07/20 03:48:15;;;;;;;16.23;11.10;;;9.40;99.90;;;;;;5044730;28;20057;-23
2023/07/20 03:50:41;;;;;;;14.80;9.73;;;9.40;99.90;;;;;;5050650;28;20044;-23
2023/07/20 03:53:07;;;;;;;15.85;10.02;;;9.40;99.90;;;;;;5040454;28;20057;-23
2023/07/20 03:55:32;;;;;;;15.27;9.93;;;9.40;99.90;;;;;;5035194;28;20128;-23
2023/07/20 03:57:58;;;;;;;15.40;9.10;;;9.40;99.90;;;;;;5044769;28;20042;-23
2023/07/20 04:00:24;;;;;;;14.40;9.60;;;9.30;99.90;;;;;;5054641;28;20136;-23
2023/07/20 04:02:50;;;;;;;15.50;9.05;;;9.30;99.90;;;;;;5051120;28;20099;-23
2023/07/20 04:05:16;;;;;;;14.32;8.55;;;9.30;99.90;;;;;;5035413;28;20434;-22
2023/07/20 04:07:41;;;;;;;10.70;7.72;;;9.20;99.90;;;;;;5035852;28;20042;-22
2023/07/20 04:10:08;;;;;;;12.25;8.70;;;9.20;99.90;;;;;;5035716;28;20041;-23
2023/07/20 04:12:33;;;;;;;10.85;7.80;;;9.20;99.90;;;;;;5042010;28;20073;-22
2023/07/20 04:14:59;;;;;;;19.33;9.23;;;9.10;99.90;;;;;;5049403;28;20084;-21
2023/07/20 04:17:25;;;;;;;14.32;8.50;;;9.10;99.90;;;;;;5036086;28;20068;-22
2023/07/20 04:19:50;;;;;;;11.73;7.70;;;9.20;99.90;;;;;;5047999;28;20114;-22
2023/07/20 04:22:16;;;;;;;12.82;9.43;;;9.40;99.90;;;;;;5043451;28;20045;-22
2023/07/20 04:24:42;;;;;;;12.32;9.27;;;9.50;99.90;;;;;;5034975;28;20065;-22
2023/07/20 04:27:08;;;;;;;11.20;8.98;;;9.70;99.90;;;;;;5034929;28;20053;-22
2023/07/20 04:29:34;;;;;;;27.02;10.88;;;9.90;99.90;;;;;;5042744;28;20064;-22
2023/07/20 04:32:00;;;;;;;14.30;10.25;;;10.10;99.90;;;;;;5054189;28;20045;-22
2023/07/20 04:34:26;;;;;;;15.85;9.65;;;10.30;99.90;;;;;;5055670;28;20045;-22
2023/07/20 04:36:51;;;;;;;20.80;10.93;;;10.40;99.90;;;;;;5054583;28;20076;-22
2023/07/20 04:39:17;;;;;;;13.48;9.27;;;10.50;99.90;;;;;;5034169;28;20065;-22
2023/07/20 04:41:43;;;;;;;16.30;9.82;;;10.70;99.90;;;;;;5035099;28;20049;-22
2023/07/20 04:44:09;;;;;;;11.35;8.98;;;10.80;99.90;;;;;;5053133;28;20051;-22
2023/07/20 04:46:34;;;;;;;7.15;6.35;;;11.00;99.90;;;;;;5053958;28;20129;-22
2023/07/20 04:49:01;;;;;;;8.40;6.28;;;11.20;99.90;;;;;;5051426;28;20053;-22
2023/07/20 04:51:30;;;;;;;9.75;7.35;;;11.60;99.90;;;;;;5048321;28;20451;-23
2023/07/20 04:53:56;;;;;;;7.85;5.85;;;11.90;99.90;;;;;;5045719;28;20070;-23
2023/07/20 04:56:23;;;;;;;10.18;6.85;;;12.10;99.90;;;;;;5034797;28;20056;-23
2023/07/20 04:58:49;;;;;;;11.68;7.40;;;12.30;99.90;;;;;;5035585;28;20375;-23
2023/07/20 05:01:14;;;;;;;10.05;8.00;;;12.30;99.90;;;;;;5050182;28;20044;-23
2023/07/20 05:03:40;;;;;;;9.50;7.68;;;12.40;99.90;;;;;;5042725;28;20049;-23
2023/07/20 05:06:06;;;;;;;11.77;6.65;;;12.30;99.90;;;;;;5048478;28;20144;-23
2023/07/20 05:08:31;;;;;;;8.38;7.13;;;12.30;99.90;;;;;;5033140;28;20050;-24
2023/07/20 05:10:57;;;;;;;10.43;6.75;;;12.30;99.90;;;;;;5055273;28;20048;-24
2023/07/20 05:13:23;;;;;;;7.47;6.75;;;12.40;99.90;;;;;;5054983;28;20462;-24
2023/07/20 05:15:52;;;;;;;11.32;7.25;;;12.50;99.90;;;;;;5053548;28;20048;-24
2023/07/20 05:18:19;;;;;;;8.98;6.65;;;12.60;99.90;;;;;;5040986;28;20049;-23
2023/07/20 05:20:48;;;;;;;9.75;6.70;;;12.60;99.90;;;;;;5054313;28;20048;-24
2023/07/20 05:23:14;;;;;;;9.30;5.35;;;12.60;99.90;;;;;;5045239;28;20048;-24
2023/07/20 05:25:40;;;;;;;6.50;4.50;;;12.80;99.90;;;;;;5034196;28;20052;-24
2023/07/20 05:28:06;;;;;;;7.13;4.57;;;13.30;99.90;;;;;;5033033;28;20054;-24
2023/07/20 05:30:32;;;;;;;5.68;4.25;;;14.00;99.90;;;;;;5033279;28;20471;-24
2023/07/20 05:32:58;;;;;;;6.88;4.05;;;14.60;99.90;;;;;;5034252;28;20060;-24
2023/07/20 05:35:23;;;;;;;7.63;4.07;;;15.20;99.90;;;;;;5040450;28;20458;-24
2023/07/20 05:37:49;;;;;;;5.60;4.10;;;15.70;99.90;;;;;;5052843;28;20079;-24
2023/07/20 05:40:18;;;;;;;4.10;3.20;;;16.10;99.90;;;;;;5054537;28;20136;-24
2023/07/20 05:42:48;;;;;;;5.47;3.30;;;16.40;99.90;;;;;;5054199;28;20111;-24
2023/07/20 05:45:14;;;;;;;4.05;2.70;;;16.60;99.90;;;;;;5054459;28;20127;-24
2023/07/20 05:47:41;;;;;;;5.00;2.90;;;16.80;99.90;;;;;;5053800;28;20144;-24
2023/07/20 05:50:07;;;;;;;4.97;2.30;;;17.10;99.90;;;;;;5052578;28;20495;-24
2023/07/20 05:52:33;;;;;;;6.28;1.63;;;17.20;99.90;;;;;;5050514;28;20047;-24
2023/07/20 05:54:59;;;;;;;3.42;1.50;;;17.70;45.90;;;;;;5038216;28;20441;-23
2023/07/20 05:57:24;;;;;;;8.43;1.52;;;17.90;1.00;;;;;;5043407;28;20040;-24
2023/07/20 05:59:50;;;;;;;4.55;2.05;;;17.90;99.90;;;;;;5052499;28;20044;-24
2023/07/20 06:02:16;;;;;;;3.13;1.20;;;18.00;99.90;;;;;;5051321;28;20116;-24
2023/07/20 06:04:42;;;;;;;3.25;1.35;;;18.10;99.90;;;;;;5035487;28;20106;-24
2023/07/20 06:07:08;;;;;;;2.83;1.20;;;18.60;99.90;;;;;;5044422;28;20441;-24
2023/07/20 06:09:34;;;;;;;2.53;0.80;;;18.80;1.00;;;;;;5053875;28;20573;-24
2023/07/20 06:12:00;;;;;;;3.75;0.95;;;18.70;99.90;;;;;;5046520;28;20049;-24
2023/07/20 06:14:26;;;;;;;4.28;1.13;;;18.90;1.00;;;;;;5051602;28;20102;-24
2023/07/20 06:16:51;;;;;;;5.35;1.27;;;19.10;1.00;;;;;;5048549;28;20037;-24
2023/07/20 06:19:17;;;;;;;2.35;1.00;;;18.70;99.90;;;;;;5033184;28;20046;-24
2023/07/20 06:21:43;;;;;;;5.47;2.13;;;19.00;1.00;;;;;;5050376;28;20045;-24
2023/07/20 06:24:09;;;;;;;4.93;1.33;;;19.20;99.90;;;;;;5052581;28;20052;-24
2023/07/20 06:26:38;;;;;;;3.08;0.80;;;19.50;99.90;;;;;;5043047;28;20048;-24
2023/07/20 06:29:06;;;;;;;3.05;1.08;;;19.00;78.90;;;;;;5034746;28;20057;-24
2023/07/20 06:31:32;;;;;;;2.00;0.90;;;19.10;1.00;;;;;;5033777;28;20046;-24
2023/07/20 06:33:58;;;;;;;3.47;1.02;;;19.10;1.00;;;;;;5049369;28;20406;-24
2023/07/20 06:36:25;;;;;;;2.30;0.77;;;19.20;99.90;;;;;;5053358;28;20099;-24
2023/07/20 06:38:52;;;;;;;3.60;1.40;;;18.90;1.00;;;;;;5042333;28;20060;-24
2023/07/20 06:41:18;;;;;;;2.17;1.00;;;19.00;1.00;;;;;;5051181;28;20124;-24
2023/07/20 06:43:44;;;;;;;2.90;1.17;;;19.10;99.90;;;;;;5053281;28;20049;-24
2023/07/20 06:46:10;;;;;;;4.72;1.00;;;19.40;1.00;;;;;;5052316;28;20128;-24
2023/07/20 06:48:36;;;;;;;4.75;1.20;;;19.40;49.60;;;;;;5046811;28;20124;-24
2023/07/20 06:51:02;;;;;;;2.92;1.05;;;19.10;99.90;;;;;;5047153;28;20052;-24
2023/07/20 06:53:29;;;;;;;3.83;1.00;;;19.20;99.90;;;;;;5033249;28;20462;-24
2023/07/20 06:55:56;;;;;;;4.07;1.80;;;19.40;1.00;;;;;;5032879;28;20132;-24
2023/07/20 06:58:23;;;;;;;5.45;2.20;;;19.90;1.00;;;;;;5038148;28;20057;-24
2023/07/20 07:00:49;;;;;;;4.13;1.05;;;19.60;99.90;;;;;;5035784;28;20042;-24
2023/07/20 07:03:15;;;;;;;3.78;1.50;;;19.50;99.90;;;;;;5033565;28;20072;-24
2023/07/20 07:05:40;;;;;;;4.47;1.58;;;19.50;99.90;;;;;;5036187;28;20052;-24
2023/07/20 07:08:07;;;;;;;4.32;1.35;;;19.20;99.90;;;;;;5047352;28;20045;-24
2023/07/20 07:10:34;;;;;;;4.13;1.48;;;18.90;99.90;;;;;;5042036;28;20492;-23
2023/07/20 07:13:00;;;;;;;3.25;1.13;;;19.10;99.90;;;;;;5047641;28;20045;-23
2023/07/20 07:15:27;;;;;;;5.97;1.45;;;19.30;1.00;;;;;;5054053;28;20483;-23
2023/07/20 07:17:53;;;;;;;3.65;1.73;;;19.10;1.00;;;;;;5046656;28;20045;-24
2023/07/20 07:20:18;;;;;;;6.32;1.80;;;19.40;1.00;;;;;;5055162;28;20049;-27
2023/07/20 07:22:45;;;;;;;4.68;1.25;;;19.30;1.00;;;;;;5045536;28;20041;-25
2023/07/20 07:25:11;;;;;;;3.65;1.50;;;19.20;99.90;;;;;;5036390;28;20053;-25
2023/07/20 07:27:36;;;;;;;7.28;1.75;;;19.50;1.00;;;;;;5036046;28;20530;-24
2023/07/20 07:30:06;;;;;;;4.68;1.50;;;19.20;1.00;;;;;;5035310;28;20053;-25
2023/07/20 07:32:32;;;;;;;3.03;1.45;;;19.30;1.00;;;;;;5036445;28;20061;-24
2023/07/20 07:35:00;;;;;;;5.18;1.25;;;19.50;1.00;;;;;;5036773;28;20046;-25
2023/07/20 07:37:26;;;;;;;7.30;1.20;;;19.70;1.00;;;;;;5035131;28;20042;-25
2023/07/20 07:39:51;;;;;;;5.03;1.42;;;19.70;99.90;;;;;;5036326;28;20048;-25
2023/07/20 07:42:18;;;;;;;4.45;1.27;;;20.00;99.90;;;;;;5036273;28;20129;-24
2023/07/20 07:44:44;;;;;;;5.95;1.10;;;20.00;99.90;;;;;;5036190;28;20041;-26
2023/07/20 07:47:10;;;;;;;3.95;1.27;;;19.40;1.00;;;;;;5041033;28;20041;-24
2023/07/20 07:49:36;;;;;;;4.53;1.10;;;18.60;1.00;;;;;;5053610;28;20041;-25
2023/07/20 07:52:02;;;;;;;6.47;1.20;;;17.90;99.90;;;;;;5050567;28;20506;-25
2023/07/20 07:54:28;;;;;;;3.17;0.95;;;17.60;1.00;;;;;;5043506;28;20501;-25
2023/07/20 07:56:54;;;;;;;4.00;0.90;;;18.40;1.00;;;;;;5055900;28;20041;-25
2023/07/20 07:59:20;;;;;;;2.95;0.85;;;19.00;99.90;;;;;;5055255;28;20382;-25
2023/07/20 08:01:46;;;;;;;3.20;0.90;;;19.50;1.00;;;;;;5054591;28;20048;-26
2023/07/20 08:04:11;;;;;;;3.92;0.90;;;20.00;99.90;;;;;;5053847;28;20045;-23
2023/07/20 08:06:37;;;;;;;2.47;0.77;;;19.50;99.90;;;;;;5055475;28;20045;-25
2023/07/20 08:09:03;;;;;;;5.03;0.90;;;19.00;1.00;;;;;;5054178;28;20048;-26
2023/07/20 08:11:30;;;;;;;2.85;0.40;;;18.10;99.90;;;;;;5047045;28;20103;-26
2023/07/20 08:13:56;;;;;;;3.50;0.70;;;17.60;99.90;;;;;;5036259;28;20053;-25
2023/07/20 08:16:22;;;;;;;1.70;0.55;;;17.50;58.30;;;;;;5045807;28;20169;-24
2023/07/20 08:18:48;;;;;;;3.35;0.40;;;18.20;98.70;;;;;;5054770;28;20643;-25
2023/07/20 08:21:14;;;;;;;3.22;0.63;;;18.30;1.00;;;;;;5054914;28;20394;-25
2023/07/20 08:23:40;;;;;;;2.15;0.45;;;17.80;75.30;;;;;;5034739;28;20095;-25
2023/07/20 08:26:06;;;;;;;1.77;0.70;;;18.40;1.00;;;;;;5044854;28;20080;-26
2023/07/20 08:28:32;;;;;;;4.20;1.02;;;19.50;99.90;;;;;;5053660;28;20112;-26
2023/07/20 08:30:57;;;;;;;2.05;0.50;;;20.30;1.00;;;;;;5055721;28;20052;-26
2023/07/20 08:33:24;;;;;;;3.30;0.40;;;20.90;99.90;;;;;;5055142;28;20391;-26
2023/07/20 08:35:49;;;;;;;3.42;0.50;;;20.90;99.90;;;;;;5054585;28;20044;-25
2023/07/20 08:38:18;;;;;;;3.10;0.43;;;21.10;22.10;;;;;;5054774;28;20524;-26
2023/07/20 08:40:47;;;;;;;2.17;0.55;;;21.00;1.00;;;;;;5045286;28;20453;-26
2023/07/20 08:43:16;;;;;;;2.00;0.50;;;21.10;62.80;;;;;;5055024;28;20506;-26
2023/07/20 08:45:44;;;;;;;3.92;0.40;;;20.50;81.80;;;;;;5055018;28;20393;-26
2023/07/20 08:48:12;;;;;;;1.85;0.40;;;20.10;99.90;;;;;;5053618;28;20509;-26
2023/07/20 08:50:38;;;;;;;2.13;0.55;;;20.30;1.00;;;;;;5049401;28;20037;-26
2023/07/20 08:53:06;;;;;;;2.15;0.50;;;20.40;1.00;;;;;;5034523;28;20049;-26
2023/07/20 08:55:32;;;;;;;2.20;0.50;;;20.70;1.00;;;;;;5036167;28;20475;-26
2023/07/20 08:57:59;;;;;;;1.30;0.55;;;20.80;1.00;;;;;;5053455;28;20095;-24
2023/07/20 09:00:26;;;;;;;3.90;0.43;;;21.30;1.00;;;;;;5037680;28;20048;-27
2023/07/20 09:02:57;;;;;;;1.65;0.40;;;21.30;1.00;;;;;;5053409;28;20055;-26
2023/07/20 09:05:24;;;;;;;2.88;0.30;;;21.50;1.00;;;;;;5054436;28;20136;-26
2023/07/20 09:07:52;;;;;;;3.33;0.60;;;21.40;99.90;;;;;;5053316;28;20558;-27
2023/07/20 09:10:23;;;;;;;1.60;0.35;;;21.70;1.00;;;;;;5038461;28;20076;-26
2023/07/20 09:12:50;;;;;;;1.98;0.50;;;21.30;99.90;;;;;;5047527;28;20072;-26
2023/07/20 09:15:16;;;;;;;4.50;0.70;;;20.40;99.90;;;;;;5054373;28;20127;-26
2023/07/20 09:17:47;;;;;;;2.97;0.50;;;20.60;1.00;;;;;;5051710;28;20045;-24
2023/07/20 09:20:15;;;;;;;3.30;0.70;;;21.30;1.00;;;;;;5042788;28;20119;-26
2023/07/20 09:22:42;;;;;;;3.38;0.40;;;22.50;1.00;;;;;;5054010;28;20491;-26
2023/07/20 09:25:15;;;;;;;2.05;0.60;;;22.60;99.90;;;;;;5041122;28;20049;-26
2023/07/20 09:27:43;;;;;;;2.67;0.52;;;23.00;99.90;;;;;;5034114;28;20057;-27
2023/07/20 09:30:13;;;;;;;1.52;0.52;;;22.10;99.90;;;;;;5034122;28;20060;-26
2023/07/20 09:32:46;;;;;;;1.75;0.52;;;21.70;99.90;;;;;;5034168;28;20046;-26
2023/07/20 09:35:16;;;;;;;2.05;0.45;;;21.50;99.90;;;;;;5050603;28;20036;-26
2023/07/20 09:37:57;;;;;;;2.40;0.50;;;21.70;99.90;;;;;;5045407;28;20509;-26
2023/07/20 09:40:25;;;;;;;3.17;0.68;;;21.50;99.90;;;;;;5056153;28;20041;-26
2023/07/20 09:42:59;;;;;;;5.15;1.00;;;21.80;99.90;;;;;;5067073;28;20060;-26
2023/07/20 09:45:49;;;;;;;2.63;0.60;;;23.00;99.90;;;;;;5054579;28;20447;-27
2023/07/20 09:48:15;;;;;;;4.20;0.88;;;22.30;99.90;;;;;;5051034;28;20053;-26
2023/07/20 09:50:51;;;;;;;3.38;0.50;;;20.60;99.90;;;;;;5048741;28;20049;-25
2023/07/20 09:53:18;;;;;;;1.80;0.60;;;19.60;99.90;;;;;;5034128;28;20416;-26
2023/07/20 09:55:48;;;;;;;4.18;0.50;;;19.10;1.00;;;;;;5040115;28;20045;-26
2023/07/20 09:58:15;;;;;;;2.20;0.60;;;18.80;99.90;;;;;;5050249;28;20052;-26
2023/07/20 10:00:50;;;;;;;3.22;0.93;;;18.80;99.90;;;;;;5053705;28;20403;-26
2023/07/20 10:03:20;;;;;;;5.72;0.57;;;19.90;99.90;;;;;;5046479;28;20557;-26
2023/07/20 10:06:08;;;;;;;2.15;0.40;;;21.20;1.00;;;;;;5041581;28;20045;-26
2023/07/20 10:08:39;;;;;;;2.38;0.70;;;22.00;99.90;;;;;;5050798;28;20045;-27
2023/07/20 10:11:07;;;;;;;2.25;0.70;;;21.70;99.90;;;;;;5052150;28;20501;-26
2023/07/20 10:13:37;;;;;;;3.10;0.60;;;20.80;99.90;;;;;;5052620;28;20060;-26
2023/07/20 10:16:18;;;;;;;3.17;0.60;;;21.40;99.90;;;;;;5053554;28;20502;-26
2023/07/20 10:19:31;;;;;;;2.42;0.40;;;21.50;99.90;;;;;;5040332;28;20052;-26
2023/07/20 10:22:03;;;;;;;3.22;0.60;;;22.00;99.90;;;;;;5030006;28;20140;-26
2023/07/20 10:24:31;;;;;;;3.70;0.80;;;21.40;99.90;;;;;;5033525;28;20107;-26
2023/07/20 10:26:57;;;;;;;2.97;0.80;;;20.90;99.90;;;;;;5034035;28;20140;-26
2023/07/20 10:29:24;;;;;;;2.53;0.60;;;21.20;99.90;;;;;;5033552;28;20064;-26
2023/07/20 10:31:50;;;;;;;2.15;0.50;;;21.20;99.90;;;;;;5040563;28;20053;-26
2023/07/20 10:34:17;;;;;;;2.95;0.50;;;21.30;99.90;;;;;;5035429;28;20617;-26
2023/07/20 10:36:51;;;;;;;3.25;0.93;;;21.30;99.90;;;;;;5034579;28;20089;-26
2023/07/20 10:39:27;;;;;;;5.47;0.60;;;21.40;99.90;;;;;;5047071;28;20037;-26
2023/07/20 10:42:03;;;;;;;2.65;0.52;;;22.70;99.90;;;;;;5039293;28;20041;-26
2023/07/20 10:44:30;;;;;;;2.05;0.50;;;22.90;99.90;;;;;;5054740;28;20084;-26
2023/07/20 10:47:08;;;;;;;1.77;0.50;;;21.60;99.90;;;;;;5051667;28;20048;-26
2023/07/20 10:49:35;;;;;;;1.60;0.60;;;20.80;99.90;;;;;;5049384;28;20148;-25
2023/07/20 10:52:05;;;;;;;3.28;0.50;;;20.70;99.90;;;;;;5042432;28;20045;-28
2023/07/20 10:54:30;;;;;;;3.90;0.47;;;21.10;99.90;;;;;;5050981;28;20041;-26
2023/07/20 10:56:57;;;;;;;1.80;0.30;;;21.90;99.90;;;;;;5038623;28;20106;-25
2023/07/20 10:59:23;;;;;;;2.83;0.52;;;21.40;99.90;;;;;;5045524;28;20548;-28
2023/07/20 11:01:49;;;;;;;4.47;0.80;;;20.90;99.90;;;;;;5036025;28;20042;-26
2023/07/20 11:04:18;;;;;;;2.88;0.50;;;20.80;99.90;;;;;;5046906;28;20101;-26
2023/07/20 11:06:44;;;;;;;1.33;0.32;;;21.20;99.90;;;;;;5074962;28;20056;-26
2023/07/20 11:09:14;;;;;;;2.33;0.70;;;20.90;99.90;;;;;;5064595;28;20037;-26
2023/07/20 11:11:42;;;;;;;2.38;0.50;;;20.50;99.90;;;;;;5056777;28;20040;-26
2023/07/20 11:14:34;;;;;;;1.63;0.40;;;20.10;99.90;;;;;;5056697;28;20123;-26
2023/07/20 11:17:14;;;;;;;2.25;0.65;;;20.30;99.90;;;;;;5057005;28;20067;-26
2023/07/20 11:19:41;;;;;;;4.05;0.70;;;21.50;99.90;;;;;;5049680;28;20048;-26
2023/07/20 11:22:09;;;;;;;1.85;0.68;;;22.40;99.90;;;;;;5036371;28;20418;-26
2023/07/20 11:24:39;;;;;;;1.25;0.47;;;23.20;99.90;;;;;;5035674;28;20045;-26
2023/07/20 11:27:05;;;;;;;2.38;0.30;;;22.80;99.90;;;;;;5036309;28;20057;-26
2023/07/20 11:29:31;;;;;;;1.63;0.52;;;22.30;99.90;;;;;;5038998;28;20053;-26
2023/07/20 11:31:58;;;;;;;4.32;0.40;;;22.70;99.90;;;;;;5054927;28;20064;-24
2023/07/20 11:34:24;;;;;;;2.65;0.50;;;23.30;99.90;;;;;;5056058;28;20055;-27
2023/07/20 11:36:52;;;;;;;2.05;0.60;;;23.70;99.90;;;;;;5056330;28;20045;-26
2023/07/20 11:39:19;;;;;;;1.52;0.60;;;23.00;42.20;;;;;;5057109;28;20053;-26
2023/07/20 11:41:50;;;;;;;1.73;0.40;;;22.50;60.00;;;;;;5056253;28;20056;-27
2023/07/20 11:44:16;;;;;;;1.92;0.47;;;22.40;37.70;;;;;;5044257;28;20053;-26
2023/07/20 11:46:44;;;;;;;3.80;1.10;;;22.70;99.90;;;;;;5036663;28;20179;-27
2023/07/20 11:49:10;;;;;;;2.03;0.40;;;23.20;99.90;;;;;;5035827;28;20564;-26
2023/07/20 11:51:37;;;;;;;5.35;0.77;;;23.50;75.60;;;;;;5036422;28;20052;-26
2023/07/20 11:54:05;;;;;;;1.60;0.40;;;23.20;84.10;;;;;;5035766;28;20565;-27
2023/07/20 11:56:31;;;;;;;2.35;0.68;;;22.00;25.10;;;;;;5036541;28;20399;-26
2023/07/20 11:58:59;;;;;;;1.88;0.40;;;20.90;99.90;;;;;;5035955;28;20049;-26
2023/07/20 12:01:28;;;;;;;2.85;0.70;;;20.40;99.90;;;;;;5035952;28;20128;-25
2023/07/20 12:04:03;;;;;;;1.77;0.63;;;20.10;99.90;;;;;;5035379;28;20492;-23
2023/07/20 12:06:29;;;;;;;2.88;0.40;;;19.80;99.90;;;;;;5054721;28;20060;-26
2023/07/20 12:08:56;;;;;;;1.75;0.52;;;19.80;99.90;;;;;;5049185;28;20037;-26
2023/07/20 12:11:32;;;;;;;2.08;0.40;;;19.80;1.00;;;;;;5038562;28;20380;-27
2023/07/20 12:13:58;;;;;;;1.77;0.43;;;19.50;99.90;;;;;;5035564;28;20052;-26
2023/07/20 12:16:28;;;;;;;4.20;0.70;;;19.40;1.00;;;;;;5046126;28;20060;-26
2023/07/20 12:19:01;;;;;;;2.50;0.52;;;19.30;26.60;;;;;;5054601;28;20048;-27
2023/07/20 12:21:27;;;;;;;3.03;0.40;;;19.10;1.00;;;;;;5055720;28;20076;-26
2023/07/20 12:23:55;;;;;;;4.22;0.52;;;19.00;1.00;;;;;;5055432;28;20045;-26
2023/07/20 12:26:23;;;;;;;1.67;0.38;;;18.90;99.90;;;;;;5050669;28;20041;-26
2023/07/20 12:28:50;;;;;;;3.38;0.40;;;19.10;99.90;;;;;;5046942;28;20057;-26
2023/07/20 12:31:15;;;;;;;1.73;0.45;;;19.30;99.90;;;;;;5055335;28;20064;-26
2023/07/20 12:33:41;;;;;;;0.68;0.30;;;19.70;78.00;;;;;;5056097;28;20482;-26
2023/07/20 12:36:08;;;;;;;4.22;0.60;;;19.90;1.00;;;;;;5055211;28;20087;-26
2023/07/20 12:38:34;;;;;;;3.55;0.82;;;20.10;1.00;;;;;;5038296;28;20137;-24
2023/07/20 12:41:03;;;;;;;1.73;0.40;;;20.40;1.00;;;;;;5047144;28;20128;-26
2023/07/20 12:43:29;;;;;;;3.25;0.43;;;20.60;99.90;;;;;;5036235;28;20049;-26
2023/07/20 12:45:58;;;;;;;5.13;0.82;;;20.40;99.90;;;;;;5042099;28;20045;-27